SVMI/CCS METAR and TAF weather

Enter ICAO airport designator
Station Type Date Time Source
SVMI METAR 2020/09/18 19:02 UTC NOAA

SVMI 181902Z AUTO 00005KT NCD ///// Q1011


Station Type Date Time Source
SVMI Decoded METAR 2020/09/18 19:02 UTC NOAA

Caracas / Maiquetia Aerop. Intl. Simon Bolivar, Venezuela (SVMI) 10-36N 066-59W 48M
Sep 18, 2020 - 03:02 PM EDT / 2020.09.18 1902 UTC
Wind: from the N (000 degrees) at 6 MPH (5 KT):0
Pressure (altimeter): 29.85 in. Hg (1011 hPa)
ob: SVMI 181902Z AUTO 00005KT NCD ///// Q1011
cycle: 19

Station Type Date Time Source
SVMI TAF 2020/09/18 18:04 UTC NOAA

TAF SVMI 181600Z 1818/1918 36005KT 9999 FEW016 TX33/1818Z TN23/1808Z
BECMG 1818/1822 FEW016

Example: see airport list